Loma, CO

5:23 AM MST on November 17, 2019 (GMT -0700)
USMC | | Change Station

Elev 4543 ft 39.20 °N, 108.82 °W | Updated 24 seconds ago

Clear
Clear
23 °F
Feels Like 23 °F
N
0
Wind Variable Wind from N/A
Gusts 0.0 mph

Today
High -- | Low -- °F
--% Chance of Precip.
Yesterday
High -- | Low -- °F
Precip. -- in
Pressure 30.28 in
Visibility 10.0 miles
Clouds Clear
Windchill 23 °F
Dew Point 14 °F
Humidity 68%
Rainfall 0.00 in
Snow Depth Not available.
7:00 AM 4:59 PM
Waning Gibbous, 75% visible
METAR KGJT 171153Z AUTO 00000KT 10SM CLR M02/M10 A3030 RMK AO2 SLP252 T10171100 10100 21017 53013
Pressure 30.28 in
Visibility 10.0 miles
Clouds Clear
Windchill 23 °F
Dew Point 14 °F
Humidity 68%
Rainfall 0.00 in
Snow Depth Not available.
7:00 AM 4:59 PM
Waning Gibbous, 75% visible
METAR KGJT 171153Z AUTO 00000KT 10SM CLR M02/M10 A3030 RMK AO2 SLP252 T10171100 10100 21017 53013

Get Severe Weather Alerts

Thanks for signing up!

Be on the lookout for a verification email in your inbox.

You'll start receiving the daily forecast at 6 AM.

×

10-Day Weather Forecast

Almanac

Astronomy

Nov. 17, 2019 Rise Set
Actual Time
Civil Twilight
Nautical Twilight
Astronomical Twilight
Moon
Length of Visible Light
Length of Day
Tomorrow will be .
, % of the Moon is Illuminated

Today's Extremes

State Highs State Lows

Community

WunderPhotos

Category 6

Welcome to Category 6. This is the collective home for Weather Underground's featured writeups by Dr. Jeff Masters (right), Bob Henson (left), Chris Burt, and other regular contributors.

Nearby

Air Quality

  Air Quality AQ Index Pollutant
Not available.

Snow Depth

Station Depth Elevation

Earthquake Activity

City Distance Mag. Time & Date
Minimum magnitude displayed is 2.5.

Coastal Water Temperatures

Place Temperature

Stations

Nearby Weather Stations

Station Location Temp. Windchill Dew Point Humidity Wind Precip. Elev Updated Type
                   

Watches & Warnings

There are currently no watches in effect.